sensor_id;sensor_type;location;lat;lon;timestamp;pressure;altitude;pressure_sealevel;temperature;humidity
74544;BME280;63016;55.030;38.710;2023-02-28T00:00:18;100528.16;;;-2.80;59.31
74544;BME280;63016;55.030;38.710;2023-02-28T00:02:44;100532.44;;;-2.81;59.15
74544;BME280;63016;55.030;38.710;2023-02-28T00:05:12;100516.56;;;-2.88;59.67
74544;BME280;63016;55.030;38.710;2023-02-28T00:07:38;100515.66;;;-2.87;59.39
74544;BME280;63016;55.030;38.710;2023-02-28T00:10:07;100519.94;;;-2.87;59.68
74544;BME280;63016;55.030;38.710;2023-02-28T00:12:34;100511.56;;;-2.91;59.20
74544;BME280;63016;55.030;38.710;2023-02-28T00:15:00;100514.25;;;-2.94;59.32
74544;BME280;63016;55.030;38.710;2023-02-28T00:17:25;100505.81;;;-2.96;59.77
74544;BME280;63016;55.030;38.710;2023-02-28T00:19:51;100508.53;;;-2.99;59.13
74544;BME280;63016;55.030;38.710;2023-02-28T00:22:18;100506.91;;;-3.01;59.64
74544;BME280;63016;55.030;38.710;2023-02-28T00:24:44;100504.38;;;-3.01;59.35
74544;BME280;63016;55.030;38.710;2023-02-28T00:27:10;100499.41;;;-3.04;59.23
74544;BME280;63016;55.030;38.710;2023-02-28T00:29:36;100497.72;;;-3.05;59.51
74544;BME280;63016;55.030;38.710;2023-02-28T00:32:02;100502.16;;;-3.09;59.56
74544;BME280;63016;55.030;38.710;2023-02-28T00:34:28;100503.03;;;-3.10;59.34
74544;BME280;63016;55.030;38.710;2023-02-28T00:36:54;100499.63;;;-3.11;59.71
74544;BME280;63016;55.030;38.710;2023-02-28T00:39:19;100512.56;;;-3.14;59.54
74544;BME280;63016;55.030;38.710;2023-02-28T00:41:45;100507.56;;;-3.17;59.17
74544;BME280;63016;55.030;38.710;2023-02-28T00:44:10;100497.41;;;-3.18;59.43
74544;BME280;63016;55.030;38.710;2023-02-28T00:46:36;100495.75;;;-3.19;59.45
74544;BME280;63016;55.030;38.710;2023-02-28T00:49:02;100496.72;;;-3.22;59.88
74544;BME280;63016;55.030;38.710;2023-02-28T00:51:27;100495.88;;;-3.22;59.77
74544;BME280;63016;55.030;38.710;2023-02-28T00:53:53;100495.06;;;-3.23;59.48
74544;BME280;63016;55.030;38.710;2023-02-28T00:56:19;100486.50;;;-3.22;59.92
74544;BME280;63016;55.030;38.710;2023-02-28T00:58:45;100470.38;;;-3.22;60.19
74544;BME280;63016;55.030;38.710;2023-02-28T01:01:11;100479.56;;;-3.18;59.93
74544;BME280;63016;55.030;38.710;2023-02-28T01:03:36;100468.56;;;-3.20;60.04
74544;BME280;63016;55.030;38.710;2023-02-28T01:06:02;100468.44;;;-3.17;59.71
74544;BME280;63016;55.030;38.710;2023-02-28T01:08:27;100461.69;;;-3.18;59.89
74544;BME280;63016;55.030;38.710;2023-02-28T01:10:53;100458.25;;;-3.17;59.65
74544;BME280;63016;55.030;38.710;2023-02-28T01:13:19;100454.78;;;-3.16;60.11
74544;BME280;63016;55.030;38.710;2023-02-28T01:15:55;100458.88;;;-3.12;60.26
74544;BME280;63016;55.030;38.710;2023-02-28T01:18:22;100446.19;;;-3.14;60.12
74544;BME280;63016;55.030;38.710;2023-02-28T01:20:48;100461.44;;;-3.12;60.11
74544;BME280;63016;55.030;38.710;2023-02-28T01:23:14;100449.56;;;-3.13;60.01
74544;BME280;63016;55.030;38.710;2023-02-28T01:25:39;100459.69;;;-3.12;59.91
74544;BME280;63016;55.030;38.710;2023-02-28T01:28:05;100459.63;;;-3.10;60.02
74544;BME280;63016;55.030;38.710;2023-02-28T01:30:31;100463.00;;;-3.10;59.94
74544;BME280;63016;55.030;38.710;2023-02-28T01:32:57;100457.97;;;-3.11;60.34
74544;BME280;63016;55.030;38.710;2023-02-28T01:35:23;100461.31;;;-3.09;59.96
74544;BME280;63016;55.030;38.710;2023-02-28T01:37:48;100450.13;;;-3.06;60.01
74544;BME280;63016;55.030;38.710;2023-02-28T01:40:14;100439.91;;;-3.06;59.94
74544;BME280;63016;55.030;38.710;2023-02-28T01:42:39;100445.09;;;-3.08;59.99
74544;BME280;63016;55.030;38.710;2023-02-28T01:47:51;100435.59;;;-3.04;59.72
74544;BME280;63016;55.030;38.710;2023-02-28T01:50:23;100436.34;;;-3.02;59.98
74544;BME280;63016;55.030;38.710;2023-02-28T01:52:50;100431.31;;;-3.04;59.95
74544;BME280;63016;55.030;38.710;2023-02-28T01:55:19;100426.97;;;-3.02;60.04
74544;BME280;63016;55.030;38.710;2023-02-28T01:57:51;100421.78;;;-3.00;60.07
74544;BME280;63016;55.030;38.710;2023-02-28T02:00:20;100421.03;;;-3.02;59.83
74544;BME280;63016;55.030;38.710;2023-02-28T02:02:51;100421.84;;;-3.02;60.31
74544;BME280;63016;55.030;38.710;2023-02-28T02:05:22;100418.34;;;-2.99;60.30
74544;BME280;63016;55.030;38.710;2023-02-28T02:07:52;100413.25;;;-2.99;60.14
74544;BME280;63016;55.030;38.710;2023-02-28T02:10:29;100416.63;;;-2.99;59.81
74544;BME280;63016;55.030;38.710;2023-02-28T02:13:08;100414.75;;;-2.95;60.25
74544;BME280;63016;55.030;38.710;2023-02-28T02:16:04;100411.38;;;-2.96;59.75
74544;BME280;63016;55.030;38.710;2023-02-28T02:24:07;100397.16;;;-3.01;60.08
74544;BME280;63016;55.030;38.710;2023-02-28T02:37:24;100373.53;;;-3.06;59.55
74544;BME280;63016;55.030;38.710;2023-02-28T02:40:16;100360.88;;;-3.08;59.29
74544;BME280;63016;55.030;38.710;2023-02-28T02:43:00;100354.97;;;-3.10;59.86
74544;BME280;63016;55.030;38.710;2023-02-28T02:45:43;100353.31;;;-3.11;59.71
74544;BME280;63016;55.030;38.710;2023-02-28T02:48:13;100351.81;;;-3.15;59.88
74544;BME280;63016;55.030;38.710;2023-02-28T02:50:48;100347.53;;;-3.15;59.65
74544;BME280;63016;55.030;38.710;2023-02-28T02:53:17;100345.13;;;-3.18;59.59
74544;BME280;63016;55.030;38.710;2023-02-28T02:55:47;100353.59;;;-3.17;59.95
74544;BME280;63016;55.030;38.710;2023-02-28T02:58:22;100349.31;;;-3.17;59.58
74544;BME280;63016;55.030;38.710;2023-02-28T03:00:54;100340.84;;;-3.17;59.91
74544;BME280;63016;55.030;38.710;2023-02-28T03:03:21;100338.38;;;-3.19;59.62
74544;BME280;63016;55.030;38.710;2023-02-28T03:05:55;100340.06;;;-3.19;59.81
74544;BME280;63016;55.030;38.710;2023-02-28T03:08:20;100329.03;;;-3.20;59.67
74544;BME280;63016;55.030;38.710;2023-02-28T03:10:50;100331.59;;;-3.20;59.74
74544;BME280;63016;55.030;38.710;2023-02-28T03:19:06;100318.97;;;-3.23;59.92
74544;BME280;63016;55.030;38.710;2023-02-28T03:21:42;100312.16;;;-3.22;59.85
74544;BME280;63016;55.030;38.710;2023-02-28T03:24:35;100305.41;;;-3.23;59.82
74544;BME280;63016;55.030;38.710;2023-02-28T03:30:00;100295.31;;;-3.26;59.59
74544;BME280;63016;55.030;38.710;2023-02-28T03:33:08;100286.91;;;-3.28;59.20
74544;BME280;63016;55.030;38.710;2023-02-28T03:35:41;100279.38;;;-3.31;59.48
74544;BME280;63016;55.030;38.710;2023-02-28T03:40:51;100272.75;;;-3.36;59.64
74544;BME280;63016;55.030;38.710;2023-02-28T03:43:26;100260.06;;;-3.37;59.65
74544;BME280;63016;55.030;38.710;2023-02-28T03:45:54;100257.56;;;-3.39;59.20
74544;BME280;63016;55.030;38.710;2023-02-28T03:50:49;100245.88;;;-3.43;59.16
74544;BME280;63016;55.030;38.710;2023-02-28T03:53:25;100249.16;;;-3.41;59.82
74544;BME280;63016;55.030;38.710;2023-02-28T03:58:24;100242.56;;;-3.45;59.78
74544;BME280;63016;55.030;38.710;2023-02-28T04:00:57;100229.03;;;-3.47;59.78
74544;BME280;63016;55.030;38.710;2023-02-28T04:03:24;100233.25;;;-3.46;59.50
74544;BME280;63016;55.030;38.710;2023-02-28T04:05:54;100229.94;;;-3.48;59.85
74544;BME280;63016;55.030;38.710;2023-02-28T04:08:21;100228.28;;;-3.49;59.55
74544;BME280;63016;55.030;38.710;2023-02-28T04:10:53;100230.06;;;-3.51;59.23
74544;BME280;63016;55.030;38.710;2023-02-28T04:13:20;100225.91;;;-3.53;59.76
74544;BME280;63016;55.030;38.710;2023-02-28T04:15:46;100227.59;;;-3.52;59.66
74544;BME280;63016;55.030;38.710;2023-02-28T04:18:11;100220.81;;;-3.53;59.87
74544;BME280;63016;55.030;38.710;2023-02-28T04:20:37;100203.13;;;-3.56;59.59
74544;BME280;63016;55.030;38.710;2023-02-28T04:23:02;100205.59;;;-3.55;59.72
74544;BME280;63016;55.030;38.710;2023-02-28T04:25:28;100203.13;;;-3.56;59.75
74544;BME280;63016;55.030;38.710;2023-02-28T04:27:53;100206.50;;;-3.56;59.50
74544;BME280;63016;55.030;38.710;2023-02-28T04:30:19;100202.31;;;-3.57;59.73
74544;BME280;63016;55.030;38.710;2023-02-28T04:32:44;100199.75;;;-3.57;59.22
74544;BME280;63016;55.030;38.710;2023-02-28T04:35:10;100202.31;;;-3.57;59.61
74544;BME280;63016;55.030;38.710;2023-02-28T04:37:35;100198.94;;;-3.57;59.40
74544;BME280;63016;55.030;38.710;2023-02-28T04:40:02;100191.31;;;-3.59;59.82
74544;BME280;63016;55.030;38.710;2023-02-28T04:42:28;100196.38;;;-3.57;59.58
74544;BME280;63016;55.030;38.710;2023-02-28T04:45:01;100191.19;;;-3.56;59.74
74544;BME280;63016;55.030;38.710;2023-02-28T04:47:27;100181.94;;;-3.58;59.40
74544;BME280;63016;55.030;38.710;2023-02-28T04:49:52;100183.66;;;-3.59;59.62
74544;BME280;63016;55.030;38.710;2023-02-28T04:52:18;100178.56;;;-3.59;59.75
74544;BME280;63016;55.030;38.710;2023-02-28T04:54:43;100178.53;;;-3.57;60.06
74544;BME280;63016;55.030;38.710;2023-02-28T04:57:09;100172.56;;;-3.58;59.93
74544;BME280;63016;55.030;38.710;2023-02-28T04:59:34;100175.91;;;-3.56;59.73
74544;BME280;63016;55.030;38.710;2023-02-28T05:02:00;100163.16;;;-3.56;59.77
74544;BME280;63016;55.030;38.710;2023-02-28T05:04:25;100144.50;;;-3.58;59.96
74544;BME280;63016;55.030;38.710;2023-02-28T05:06:51;100146.81;;;-3.52;59.87
74544;BME280;63016;55.030;38.710;2023-02-28T05:09:16;100152.66;;;-3.50;60.09
74544;BME280;63016;55.030;38.710;2023-02-28T05:11:42;100146.59;;;-3.47;59.83
74544;BME280;63016;55.030;38.710;2023-02-28T05:14:12;100144.72;;;-3.44;60.57
74544;BME280;63016;55.030;38.710;2023-02-28T05:16:38;100134.38;;;-3.41;60.21
74544;BME280;63016;55.030;38.710;2023-02-28T05:19:04;100134.91;;;-3.34;60.50
74544;BME280;63016;55.030;38.710;2023-02-28T05:21:38;100138.84;;;-3.27;60.86
74544;BME280;63016;55.030;38.710;2023-02-28T05:24:06;100138.34;;;-3.16;60.81
74544;BME280;63016;55.030;38.710;2023-02-28T05:26:38;100129.56;;;-3.11;60.33
74544;BME280;63016;55.030;38.710;2023-02-28T05:29:03;100134.22;;;-3.01;60.36
74544;BME280;63016;55.030;38.710;2023-02-28T05:31:30;100116.97;;;-2.96;60.51
74544;BME280;63016;55.030;38.710;2023-02-28T05:33:56;100119.16;;;-2.89;60.69
74544;BME280;63016;55.030;38.710;2023-02-28T05:36:22;100111.91;;;-2.80;60.61
74544;BME280;63016;55.030;38.710;2023-02-28T05:38:48;100112.38;;;-2.72;60.65
74544;BME280;63016;55.030;38.710;2023-02-28T05:41:15;100107.81;;;-2.66;60.53
74544;BME280;63016;55.030;38.710;2023-02-28T05:43:40;100101.72;;;-2.63;60.52
74544;BME280;63016;55.030;38.710;2023-02-28T05:46:08;100104.84;;;-2.58;60.63
74544;BME280;63016;55.030;38.710;2023-02-28T05:48:35;100096.16;;;-2.54;60.21
74544;BME280;63016;55.030;38.710;2023-02-28T05:51:01;100091.72;;;-2.50;60.42
74544;BME280;63016;55.030;38.710;2023-02-28T05:53:28;100083.38;;;-2.54;60.24
74544;BME280;63016;55.030;38.710;2023-02-28T05:55:54;100093.03;;;-2.43;60.52
74544;BME280;63016;55.030;38.710;2023-02-28T05:58:20;100079.28;;;-2.41;60.43
74544;BME280;63016;55.030;38.710;2023-02-28T06:00:46;100057.72;;;-2.35;60.57
74544;BME280;63016;55.030;38.710;2023-02-28T06:03:12;100065.03;;;-2.29;60.84
74544;BME280;63016;55.030;38.710;2023-02-28T06:05:37;100069.78;;;-2.21;60.53
74544;BME280;63016;55.030;38.710;2023-02-28T06:08:04;100056.66;;;-2.15;60.85
74544;BME280;63016;55.030;38.710;2023-02-28T06:10:32;100058.81;;;-2.08;60.90
74544;BME280;63016;55.030;38.710;2023-02-28T06:13:02;100048.28;;;-2.01;60.56
74544;BME280;63016;55.030;38.710;2023-02-28T06:15:28;100048.69;;;-1.93;60.28
74544;BME280;63016;55.030;38.710;2023-02-28T06:17:55;100047.59;;;-1.89;60.89
74544;BME280;63016;55.030;38.710;2023-02-28T06:20:25;100033.69;;;-1.84;61.15
74544;BME280;63016;55.030;38.710;2023-02-28T06:22:54;100027.22;;;-1.75;60.69
74544;BME280;63016;55.030;38.710;2023-02-28T06:25:21;100026.91;;;-1.69;60.79
74544;BME280;63016;55.030;38.710;2023-02-28T06:27:46;100010.28;;;-1.62;60.57
74544;BME280;63016;55.030;38.710;2023-02-28T06:30:13;100008.94;;;-1.53;61.26
74544;BME280;63016;55.030;38.710;2023-02-28T06:32:39;99999.69;;;-1.40;60.95
74544;BME280;63016;55.030;38.710;2023-02-28T06:35:05;99994.13;;;-1.32;61.00
74544;BME280;63016;55.030;38.710;2023-02-28T06:37:31;99997.53;;;-1.17;61.13
74544;BME280;63016;55.030;38.710;2023-02-28T06:39:57;99986.59;;;-1.05;61.68
74544;BME280;63016;55.030;38.710;2023-02-28T06:42:24;99972.16;;;-0.92;61.60
74544;BME280;63016;55.030;38.710;2023-02-28T06:44:56;99969.03;;;-0.83;60.93
74544;BME280;63016;55.030;38.710;2023-02-28T06:47:23;99957.41;;;-0.74;60.94
74544;BME280;63016;55.030;38.710;2023-02-28T06:49:49;99960.19;;;-0.63;61.21
74544;BME280;63016;55.030;38.710;2023-02-28T06:52:14;99942.41;;;-0.52;61.37
74544;BME280;63016;55.030;38.710;2023-02-28T06:54:40;99923.06;;;-0.43;61.74
74544;BME280;63016;55.030;38.710;2023-02-28T06:57:06;99925.59;;;-0.29;61.08
74544;BME280;63016;55.030;38.710;2023-02-28T06:59:32;99927.50;;;-0.18;61.27
74544;BME280;63016;55.030;38.710;2023-02-28T07:01:57;99928.56;;;-0.08;61.28
74544;BME280;63016;55.030;38.710;2023-02-28T07:04:23;99922.84;;;0.02;61.55
74544;BME280;63016;55.030;38.710;2023-02-28T07:06:48;99914.66;;;0.09;61.06
74544;BME280;63016;55.030;38.710;2023-02-28T07:09:14;99900.41;;;0.18;60.95
74544;BME280;63016;55.030;38.710;2023-02-28T07:11:40;99908.97;;;0.31;61.55
74544;BME280;63016;55.030;38.710;2023-02-28T07:14:06;99903.88;;;0.44;61.87
74544;BME280;63016;55.030;38.710;2023-02-28T07:16:32;99894.53;;;0.56;61.15
74544;BME280;63016;55.030;38.710;2023-02-28T07:18:58;99882.91;;;0.63;60.54
74544;BME280;63016;55.030;38.710;2023-02-28T07:21:24;99885.78;;;0.71;60.90
74544;BME280;63016;55.030;38.710;2023-02-28T07:23:50;99875.84;;;0.79;61.20
74544;BME280;63016;55.030;38.710;2023-02-28T07:26:18;99873.34;;;0.90;61.45
74544;BME280;63016;55.030;38.710;2023-02-28T07:28:45;99862.84;;;1.06;61.81
74544;BME280;63016;55.030;38.710;2023-02-28T07:31:12;99860.25;;;1.19;61.82
74544;BME280;63016;55.030;38.710;2023-02-28T07:33:39;99858.69;;;1.29;61.36
74544;BME280;63016;55.030;38.710;2023-02-28T07:36:11;99851.88;;;1.41;61.03
74544;BME280;63016;55.030;38.710;2023-02-28T07:38:42;99828.09;;;1.50;61.16
74544;BME280;63016;55.030;38.710;2023-02-28T07:41:08;99819.69;;;1.59;60.71
74544;BME280;63016;55.030;38.710;2023-02-28T07:43:34;99809.56;;;1.69;61.08
74544;BME280;63016;55.030;38.710;2023-02-28T07:46:05;99815.59;;;1.80;61.55
74544;BME280;63016;55.030;38.710;2023-02-28T07:48:31;99809.78;;;1.90;61.37
74544;BME280;63016;55.030;38.710;2023-02-28T07:50:57;99811.22;;;2.05;61.53
74544;BME280;63016;55.030;38.710;2023-02-28T07:53:23;99816.78;;;2.23;61.42
74544;BME280;63016;55.030;38.710;2023-02-28T07:55:48;99809.19;;;2.33;61.23
74544;BME280;63016;55.030;38.710;2023-02-28T07:58:14;99818.41;;;2.46;61.08
74544;BME280;63016;55.030;38.710;2023-02-28T08:00:39;99807.34;;;2.57;61.74
74544;BME280;63016;55.030;38.710;2023-02-28T08:03:05;99799.38;;;2.71;61.67
74544;BME280;63016;55.030;38.710;2023-02-28T08:05:30;99804.38;;;2.84;61.30
74544;BME280;63016;55.030;38.710;2023-02-28T08:07:56;99779.66;;;2.93;61.42
74544;BME280;63016;55.030;38.710;2023-02-28T08:10:22;99773.78;;;3.02;61.20
74544;BME280;63016;55.030;38.710;2023-02-28T08:12:49;99760.19;;;3.11;61.08
74544;BME280;63016;55.030;38.710;2023-02-28T08:15:15;99751.59;;;3.22;61.18
74544;BME280;63016;55.030;38.710;2023-02-28T08:17:40;99749.91;;;3.32;61.40
74544;BME280;63016;55.030;38.710;2023-02-28T08:20:06;99749.06;;;3.43;60.99
74544;BME280;63016;55.030;38.710;2023-02-28T08:22:32;99749.50;;;3.48;61.10
74544;BME280;63016;55.030;38.710;2023-02-28T08:24:58;99736.69;;;3.57;61.36
74544;BME280;63016;55.030;38.710;2023-02-28T08:27:23;99741.22;;;3.65;60.84
74544;BME280;63016;55.030;38.710;2023-02-28T08:29:49;99727.00;;;3.71;60.80
74544;BME280;63016;55.030;38.710;2023-02-28T08:32:14;99734.38;;;3.75;60.94
74544;BME280;63016;55.030;38.710;2023-02-28T08:34:40;99737.25;;;3.82;60.89
74544;BME280;63016;55.030;38.710;2023-02-28T08:37:05;99736.78;;;3.88;60.98
74544;BME280;63016;55.030;38.710;2023-02-28T08:39:34;99729.59;;;3.92;60.89
74544;BME280;63016;55.030;38.710;2023-02-28T08:42:00;99729.91;;;3.98;60.82
74544;BME280;63016;55.030;38.710;2023-02-28T08:44:25;99726.13;;;4.02;60.71
74544;BME280;63016;55.030;38.710;2023-02-28T08:46:52;99720.69;;;4.05;60.41
74544;BME280;63016;55.030;38.710;2023-02-28T08:49:17;99724.78;;;4.08;60.53
74544;BME280;63016;55.030;38.710;2023-02-28T08:51:44;99712.31;;;4.13;61.06
74544;BME280;63016;55.030;38.710;2023-02-28T08:54:09;99725.50;;;4.20;60.80
74544;BME280;63016;55.030;38.710;2023-02-28T08:56:38;99725.13;;;4.24;60.87
74544;BME280;63016;55.030;38.710;2023-02-28T08:59:03;99712.13;;;4.26;60.40
74544;BME280;63016;55.030;38.710;2023-02-28T09:01:30;99701.88;;;4.24;60.23
74544;BME280;63016;55.030;38.710;2023-02-28T09:03:56;99706.81;;;4.27;60.53
74544;BME280;63016;55.030;38.710;2023-02-28T09:06:25;99707.47;;;4.29;60.35
74544;BME280;63016;55.030;38.710;2023-02-28T09:08:51;99709.16;;;4.30;60.25
74544;BME280;63016;55.030;38.710;2023-02-28T09:11:17;99695.38;;;4.30;60.08
74544;BME280;63016;55.030;38.710;2023-02-28T09:13:44;99700.44;;;4.31;60.58
74544;BME280;63016;55.030;38.710;2023-02-28T09:16:13;99702.50;;;4.37;60.65
74544;BME280;63016;55.030;38.710;2023-02-28T09:18:39;99691.53;;;4.45;60.72
74544;BME280;63016;55.030;38.710;2023-02-28T09:21:06;99684.06;;;4.52;60.69
74544;BME280;63016;55.030;38.710;2023-02-28T09:23:31;99677.53;;;4.57;60.71
74544;BME280;63016;55.030;38.710;2023-02-28T09:25:57;99674.00;;;4.58;60.00
74544;BME280;63016;55.030;38.710;2023-02-28T09:28:23;99663.81;;;4.57;60.09
74544;BME280;63016;55.030;38.710;2023-02-28T09:30:50;99662.19;;;4.56;60.39
74544;BME280;63016;55.030;38.710;2023-02-28T09:33:17;99651.84;;;4.56;60.31
74544;BME280;63016;55.030;38.710;2023-02-28T09:35:43;99643.13;;;4.57;60.00
74544;BME280;63016;55.030;38.710;2023-02-28T09:38:09;99640.53;;;4.57;60.07
74544;BME280;63016;55.030;38.710;2023-02-28T09:40:37;99630.34;;;4.55;60.26
74544;BME280;63016;55.030;38.710;2023-02-28T09:43:04;99624.91;;;4.58;60.81
74544;BME280;63016;55.030;38.710;2023-02-28T09:45:39;99618.38;;;4.64;60.30
74544;BME280;63016;55.030;38.710;2023-02-28T09:48:14;99616.66;;;4.74;60.40
74544;BME280;63016;55.030;38.710;2023-02-28T09:50:46;99598.00;;;4.80;60.83
74544;BME280;63016;55.030;38.710;2023-02-28T09:53:25;99595.81;;;4.95;60.92
74544;BME280;63016;55.030;38.710;2023-02-28T09:55:55;99575.41;;;5.02;60.41
74544;BME280;63016;55.030;38.710;2023-02-28T09:58:37;99559.34;;;5.08;60.16
74544;BME280;63016;55.030;38.710;2023-02-28T10:06:20;99569.25;;;5.12;60.75
74544;BME280;63016;55.030;38.710;2023-02-28T10:09:21;99570.50;;;5.18;60.69
74544;BME280;63016;55.030;38.710;2023-02-28T10:11:52;99556.59;;;5.19;60.74
74544;BME280;63016;55.030;38.710;2023-02-28T10:14:20;99559.31;;;5.27;60.42
74544;BME280;63016;55.030;38.710;2023-02-28T10:17:02;99551.16;;;5.32;60.39
74544;BME280;63016;55.030;38.710;2023-02-28T10:19:34;99559.28;;;5.37;60.38
74544;BME280;63016;55.030;38.710;2023-02-28T10:22:04;99555.44;;;5.41;60.80
74544;BME280;63016;55.030;38.710;2023-02-28T10:24:41;99552.59;;;5.44;59.91
74544;BME280;63016;55.030;38.710;2023-02-28T10:27:24;99542.78;;;5.48;59.94
74544;BME280;63016;55.030;38.710;2023-02-28T10:29:56;99545.75;;;5.53;60.36
74544;BME280;63016;55.030;38.710;2023-02-28T10:32:27;99530.09;;;5.54;60.01
74544;BME280;63016;55.030;38.710;2023-02-28T10:37:40;99500.53;;;5.57;59.88
74544;BME280;63016;55.030;38.710;2023-02-28T10:40:31;99477.75;;;5.60;59.88
74544;BME280;63016;55.030;38.710;2023-02-28T10:45:38;99463.91;;;5.52;59.88
74544;BME280;63016;55.030;38.710;2023-02-28T10:58:57;99491.47;;;5.43;59.79
74544;BME280;63016;55.030;38.710;2023-02-28T11:01:40;99479.50;;;5.42;59.87
74544;BME280;63016;55.030;38.710;2023-02-28T11:07:03;99468.31;;;5.41;59.71
74544;BME280;63016;55.030;38.710;2023-02-28T11:09:30;99477.28;;;5.47;60.34
74544;BME280;63016;55.030;38.710;2023-02-28T11:11:58;99467.06;;;5.46;60.18
74544;BME280;63016;55.030;38.710;2023-02-28T11:14:27;99457.13;;;5.41;59.20
74544;BME280;63016;55.030;38.710;2023-02-28T11:16:53;99461.13;;;5.35;59.32
74544;BME280;63016;55.030;38.710;2023-02-28T11:19:29;99447.13;;;5.28;59.28
74544;BME280;63016;55.030;38.710;2023-02-28T11:22:00;99449.72;;;5.28;60.11
74544;BME280;63016;55.030;38.710;2023-02-28T11:24:44;99446.31;;;5.28;59.55
74544;BME280;63016;55.030;38.710;2023-02-28T11:29:57;99448.66;;;5.21;59.81
74544;BME280;63016;55.030;38.710;2023-02-28T11:32:25;99433.69;;;5.15;59.17
74544;BME280;63016;55.030;38.710;2023-02-28T11:37:35;99422.47;;;4.97;59.74
74544;BME280;63016;55.030;38.710;2023-02-28T11:40:01;99431.34;;;4.94;59.93
74544;BME280;63016;55.030;38.710;2023-02-28T11:45:36;99413.94;;;4.86;59.16
74544;BME280;63016;55.030;38.710;2023-02-28T11:48:26;99425.50;;;4.82;59.25
74544;BME280;63016;55.030;38.710;2023-02-28T11:57:00;99432.63;;;4.61;59.53
74544;BME280;63016;55.030;38.710;2023-02-28T12:05:29;99421.22;;;4.44;59.31
74544;BME280;63016;55.030;38.710;2023-02-28T12:08:16;99415.13;;;4.35;59.06
74544;BME280;63016;55.030;38.710;2023-02-28T12:19:19;99409.81;;;4.08;59.02
74544;BME280;63016;55.030;38.710;2023-02-28T12:27:15;99408.03;;;3.79;58.67
74544;BME280;63016;55.030;38.710;2023-02-28T12:29:56;99418.50;;;3.68;58.43
74544;BME280;63016;55.030;38.710;2023-02-28T12:32:25;99419.28;;;3.59;58.73
74544;BME280;63016;55.030;38.710;2023-02-28T12:34:56;99410.00;;;3.47;58.76
74544;BME280;63016;55.030;38.710;2023-02-28T12:37:40;99406.44;;;3.38;58.73
74544;BME280;63016;55.030;38.710;2023-02-28T12:40:14;99397.06;;;3.27;59.24
74544;BME280;63016;55.030;38.710;2023-02-28T12:42:49;99404.75;;;3.18;58.33
74544;BME280;63016;55.030;38.710;2023-02-28T12:45:21;99399.47;;;3.09;59.36
74544;BME280;63016;55.030;38.710;2023-02-28T12:47:52;99387.44;;;2.99;59.24
74544;BME280;63016;55.030;38.710;2023-02-28T12:50:21;99398.97;;;2.95;59.16
74544;BME280;63016;55.030;38.710;2023-02-28T12:52:56;99402.19;;;2.87;59.35
74544;BME280;63016;55.030;38.710;2023-02-28T13:11:43;99372.03;;;2.47;59.24
74544;BME280;63016;55.030;38.710;2023-02-28T13:17:20;99374.78;;;2.35;59.21
74544;BME280;63016;55.030;38.710;2023-02-28T13:28:13;99354.38;;;2.22;59.43
74544;BME280;63016;55.030;38.710;2023-02-28T13:31:03;99364.81;;;2.20;59.47
74544;BME280;63016;55.030;38.710;2023-02-28T13:33:33;99363.16;;;2.19;59.52
74544;BME280;63016;55.030;38.710;2023-02-28T13:36:06;99352.16;;;2.17;60.24
74544;BME280;63016;55.030;38.710;2023-02-28T13:38:35;99332.09;;;2.11;59.86
74544;BME280;63016;55.030;38.710;2023-02-28T13:44:15;99322.38;;;2.15;59.87
74544;BME280;63016;55.030;38.710;2023-02-28T13:51:47;99324.00;;;2.16;59.84
74544;BME280;63016;55.030;38.710;2023-02-28T14:05:19;99273.78;;;2.00;59.93
74544;BME280;63016;55.030;38.710;2023-02-28T14:07:53;99261.31;;;1.96;59.73
74544;BME280;63016;55.030;38.710;2023-02-28T14:10:31;99264.13;;;1.93;60.20
74544;BME280;63016;55.030;38.710;2023-02-28T14:16:01;99265.88;;;1.92;59.84
74544;BME280;63016;55.030;38.710;2023-02-28T14:18:34;99267.06;;;1.88;59.99
74544;BME280;63016;55.030;38.710;2023-02-28T14:21:27;99254.34;;;1.87;60.07
74544;BME280;63016;55.030;38.710;2023-02-28T14:24:29;99257.06;;;1.85;60.06
74544;BME280;63016;55.030;38.710;2023-02-28T14:27:29;99251.34;;;1.82;59.89
74544;BME280;63016;55.030;38.710;2023-02-28T14:33:22;99263.75;;;1.76;60.12
74544;BME280;63016;55.030;38.710;2023-02-28T14:36:12;99263.06;;;1.74;59.65
74544;BME280;63016;55.030;38.710;2023-02-28T14:38:55;99257.50;;;1.69;59.88
74544;BME280;63016;55.030;38.710;2023-02-28T14:41:30;99249.06;;;1.67;60.34
74544;BME280;63016;55.030;38.710;2023-02-28T14:43:59;99245.91;;;1.64;60.47
74544;BME280;63016;55.030;38.710;2023-02-28T14:46:35;99241.84;;;1.61;59.91
74544;BME280;63016;55.030;38.710;2023-02-28T14:49:04;99237.78;;;1.59;60.20
74544;BME280;63016;55.030;38.710;2023-02-28T14:51:31;99241.41;;;1.56;60.01
74544;BME280;63016;55.030;38.710;2023-02-28T14:54:00;99241.66;;;1.53;60.03
74544;BME280;63016;55.030;38.710;2023-02-28T14:56:38;99242.47;;;1.53;59.62
74544;BME280;63016;55.030;38.710;2023-02-28T14:59:05;99225.56;;;1.51;59.86
74544;BME280;63016;55.030;38.710;2023-02-28T15:01:31;99241.91;;;1.50;59.84
74544;BME280;63016;55.030;38.710;2023-02-28T15:04:04;99242.03;;;1.48;59.89
74544;BME280;63016;55.030;38.710;2023-02-28T15:06:31;99234.31;;;1.48;60.33
74544;BME280;63016;55.030;38.710;2023-02-28T15:09:14;99226.72;;;1.47;60.08
74544;BME280;63016;55.030;38.710;2023-02-28T15:11:40;99229.31;;;1.47;60.25
74544;BME280;63016;55.030;38.710;2023-02-28T15:14:12;99232.00;;;1.45;60.45
74544;BME280;63016;55.030;38.710;2023-02-28T15:16:41;99221.81;;;1.44;59.86
74544;BME280;63016;55.030;38.710;2023-02-28T15:19:20;99222.78;;;1.43;60.33
74544;BME280;63016;55.030;38.710;2023-02-28T15:22:16;99221.16;;;1.42;60.24
74544;BME280;63016;55.030;38.710;2023-02-28T15:24:46;99222.19;;;1.39;59.87
74544;BME280;63016;55.030;38.710;2023-02-28T15:27:20;99215.56;;;1.37;60.27
74544;BME280;63016;55.030;38.710;2023-02-28T15:29:54;99220.81;;;1.35;60.14